sensor_id;sensor_type;location;lat;lon;timestamp;P1;durP1;ratioP1;P2;durP2;ratioP2
45650;SDS011;31365;48.858;8.530;2023-06-26T00:00:12;6.28;;;5.13;;
45650;SDS011;31365;48.858;8.530;2023-06-26T00:02:43;6.03;;;5.43;;
45650;SDS011;31365;48.858;8.530;2023-06-26T00:05:11;5.97;;;5.47;;
45650;SDS011;31365;48.858;8.530;2023-06-26T00:07:41;5.65;;;5.15;;
45650;SDS011;31365;48.858;8.530;2023-06-26T00:10:09;5.78;;;5.25;;
45650;SDS011;31365;48.858;8.530;2023-06-26T00:12:38;5.88;;;5.38;;
45650;SDS011;31365;48.858;8.530;2023-06-26T00:15:07;6.13;;;5.53;;
45650;SDS011;31365;48.858;8.530;2023-06-26T00:17:37;6.75;;;6.05;;
45650;SDS011;31365;48.858;8.530;2023-06-26T00:20:09;6.63;;;6.00;;
45650;SDS011;31365;48.858;8.530;2023-06-26T00:22:39;6.15;;;5.57;;
45650;SDS011;31365;48.858;8.530;2023-06-26T00:25:07;6.30;;;5.70;;
45650;SDS011;31365;48.858;8.530;2023-06-26T00:27:36;5.63;;;5.13;;
45650;SDS011;31365;48.858;8.530;2023-06-26T00:30:05;5.88;;;5.25;;
45650;SDS011;31365;48.858;8.530;2023-06-26T00:32:34;5.65;;;5.15;;
45650;SDS011;31365;48.858;8.530;2023-06-26T00:35:04;5.53;;;5.03;;
45650;SDS011;31365;48.858;8.530;2023-06-26T00:37:35;5.95;;;5.32;;
45650;SDS011;31365;48.858;8.530;2023-06-26T00:40:04;6.03;;;5.47;;
45650;SDS011;31365;48.858;8.530;2023-06-26T00:42:34;5.45;;;5.03;;
45650;SDS011;31365;48.858;8.530;2023-06-26T00:45:03;5.90;;;5.40;;
45650;SDS011;31365;48.858;8.530;2023-06-26T00:47:33;6.28;;;5.68;;
45650;SDS011;31365;48.858;8.530;2023-06-26T00:50:02;5.90;;;5.40;;
45650;SDS011;31365;48.858;8.530;2023-06-26T00:52:33;5.53;;;5.03;;
45650;SDS011;31365;48.858;8.530;2023-06-26T00:55:03;6.15;;;5.65;;
45650;SDS011;31365;48.858;8.530;2023-06-26T00:57:32;6.20;;;5.70;;
45650;SDS011;31365;48.858;8.530;2023-06-26T01:00:02;5.90;;;5.40;;
45650;SDS011;31365;48.858;8.530;2023-06-26T01:02:33;6.05;;;5.55;;
45650;SDS011;31365;48.858;8.530;2023-06-26T01:05:03;6.10;;;5.50;;
45650;SDS011;31365;48.858;8.530;2023-06-26T01:07:38;5.78;;;5.28;;
45650;SDS011;31365;48.858;8.530;2023-06-26T01:10:07;5.95;;;5.45;;
45650;SDS011;31365;48.858;8.530;2023-06-26T01:12:37;5.53;;;4.97;;
45650;SDS011;31365;48.858;8.530;2023-06-26T01:15:06;7.43;;;5.85;;
45650;SDS011;31365;48.858;8.530;2023-06-26T01:17:37;6.28;;;5.68;;
45650;SDS011;31365;48.858;8.530;2023-06-26T01:20:09;5.43;;;4.93;;
45650;SDS011;31365;48.858;8.530;2023-06-26T01:22:42;5.95;;;5.40;;
45650;SDS011;31365;48.858;8.530;2023-06-26T01:25:35;7.03;;;5.60;;
45650;SDS011;31365;48.858;8.530;2023-06-26T01:28:21;6.78;;;6.05;;
45650;SDS011;31365;48.858;8.530;2023-06-26T01:30:53;6.05;;;5.45;;
45650;SDS011;31365;48.858;8.530;2023-06-26T01:33:23;6.40;;;5.50;;
45650;SDS011;31365;48.858;8.530;2023-06-26T01:35:52;8.50;;;5.85;;
45650;SDS011;31365;48.858;8.530;2023-06-26T01:38:22;5.95;;;5.45;;
45650;SDS011;31365;48.858;8.530;2023-06-26T01:40:52;6.50;;;5.90;;
45650;SDS011;31365;48.858;8.530;2023-06-26T01:43:24;5.85;;;5.35;;
45650;SDS011;31365;48.858;8.530;2023-06-26T01:45:59;6.07;;;5.47;;
45650;SDS011;31365;48.858;8.530;2023-06-26T01:48:34;5.53;;;4.97;;
45650;SDS011;31365;48.858;8.530;2023-06-26T01:51:27;5.60;;;4.93;;
45650;SDS011;31365;48.858;8.530;2023-06-26T01:54:03;5.30;;;4.80;;
45650;SDS011;31365;48.858;8.530;2023-06-26T01:56:39;5.65;;;4.88;;
45650;SDS011;31365;48.858;8.530;2023-06-26T01:59:13;7.00;;;5.80;;
45650;SDS011;31365;48.858;8.530;2023-06-26T02:01:42;6.40;;;5.80;;
45650;SDS011;31365;48.858;8.530;2023-06-26T02:04:10;6.10;;;5.50;;
45650;SDS011;31365;48.858;8.530;2023-06-26T02:06:39;6.20;;;5.68;;
45650;SDS011;31365;48.858;8.530;2023-06-26T02:09:08;5.90;;;5.28;;
45650;SDS011;31365;48.858;8.530;2023-06-26T02:11:36;5.78;;;5.20;;
45650;SDS011;31365;48.858;8.530;2023-06-26T02:14:05;5.47;;;4.97;;
45650;SDS011;31365;48.858;8.530;2023-06-26T02:16:37;5.70;;;5.15;;
45650;SDS011;31365;48.858;8.530;2023-06-26T02:19:06;5.40;;;4.90;;
45650;SDS011;31365;48.858;8.530;2023-06-26T02:21:34;5.60;;;5.10;;
45650;SDS011;31365;48.858;8.530;2023-06-26T02:24:05;6.10;;;5.50;;
45650;SDS011;31365;48.858;8.530;2023-06-26T02:26:34;5.30;;;4.90;;
45650;SDS011;31365;48.858;8.530;2023-06-26T02:29:02;6.03;;;5.45;;
45650;SDS011;31365;48.858;8.530;2023-06-26T02:31:31;5.40;;;4.90;;
45650;SDS011;31365;48.858;8.530;2023-06-26T02:34:02;6.00;;;5.38;;
45650;SDS011;31365;48.858;8.530;2023-06-26T02:36:32;6.13;;;5.53;;
45650;SDS011;31365;48.858;8.530;2023-06-26T02:39:04;5.85;;;5.25;;
45650;SDS011;31365;48.858;8.530;2023-06-26T02:41:32;6.40;;;5.80;;
45650;SDS011;31365;48.858;8.530;2023-06-26T02:44:01;6.47;;;5.88;;
45650;SDS011;31365;48.858;8.530;2023-06-26T02:46:30;6.05;;;5.50;;
45650;SDS011;31365;48.858;8.530;2023-06-26T02:49:00;5.78;;;5.22;;
45650;SDS011;31365;48.858;8.530;2023-06-26T02:51:31;8.15;;;5.47;;
45650;SDS011;31365;48.858;8.530;2023-06-26T02:54:05;6.03;;;5.43;;
45650;SDS011;31365;48.858;8.530;2023-06-26T02:56:33;6.45;;;5.35;;
45650;SDS011;31365;48.858;8.530;2023-06-26T02:59:14;5.82;;;5.05;;
45650;SDS011;31365;48.858;8.530;2023-06-26T03:01:43;6.18;;;5.60;;
45650;SDS011;31365;48.858;8.530;2023-06-26T03:04:12;6.22;;;5.60;;
45650;SDS011;31365;48.858;8.530;2023-06-26T03:06:43;5.63;;;5.13;;
45650;SDS011;31365;48.858;8.530;2023-06-26T03:09:14;6.57;;;5.88;;
45650;SDS011;31365;48.858;8.530;2023-06-26T03:11:43;5.68;;;5.20;;
45650;SDS011;31365;48.858;8.530;2023-06-26T03:14:12;6.13;;;5.50;;
45650;SDS011;31365;48.858;8.530;2023-06-26T03:16:41;5.60;;;5.10;;
45650;SDS011;31365;48.858;8.530;2023-06-26T03:19:10;6.05;;;5.55;;
45650;SDS011;31365;48.858;8.530;2023-06-26T03:22:13;7.40;;;5.55;;
45650;SDS011;31365;48.858;8.530;2023-06-26T03:24:43;5.43;;;4.95;;
45650;SDS011;31365;48.858;8.530;2023-06-26T03:27:12;6.70;;;6.00;;
45650;SDS011;31365;48.858;8.530;2023-06-26T03:29:45;6.65;;;5.43;;
45650;SDS011;31365;48.858;8.530;2023-06-26T03:32:15;6.07;;;5.47;;
45650;SDS011;31365;48.858;8.530;2023-06-26T03:34:44;5.55;;;5.13;;
45650;SDS011;31365;48.858;8.530;2023-06-26T03:37:14;7.65;;;6.07;;
45650;SDS011;31365;48.858;8.530;2023-06-26T03:39:43;7.03;;;5.57;;
45650;SDS011;31365;48.858;8.530;2023-06-26T03:42:13;6.25;;;5.38;;
45650;SDS011;31365;48.858;8.530;2023-06-26T03:44:41;5.88;;;5.25;;
45650;SDS011;31365;48.858;8.530;2023-06-26T03:47:09;5.72;;;5.20;;
45650;SDS011;31365;48.858;8.530;2023-06-26T03:49:38;6.53;;;5.93;;
45650;SDS011;31365;48.858;8.530;2023-06-26T03:52:07;6.40;;;5.80;;
45650;SDS011;31365;48.858;8.530;2023-06-26T03:54:39;8.45;;;5.60;;
45650;SDS011;31365;48.858;8.530;2023-06-26T03:57:09;6.47;;;5.97;;
45650;SDS011;31365;48.858;8.530;2023-06-26T03:59:38;6.45;;;5.85;;
45650;SDS011;31365;48.858;8.530;2023-06-26T04:02:06;6.15;;;5.50;;
45650;SDS011;31365;48.858;8.530;2023-06-26T04:04:35;7.20;;;5.95;;
45650;SDS011;31365;48.858;8.530;2023-06-26T04:07:03;6.00;;;5.50;;
45650;SDS011;31365;48.858;8.530;2023-06-26T04:09:32;5.57;;;5.07;;
45650;SDS011;31365;48.858;8.530;2023-06-26T04:12:02;6.13;;;5.57;;
45650;SDS011;31365;48.858;8.530;2023-06-26T04:14:31;6.85;;;6.15;;
45650;SDS011;31365;48.858;8.530;2023-06-26T04:17:00;6.53;;;5.82;;
45650;SDS011;31365;48.858;8.530;2023-06-26T04:19:29;6.10;;;5.60;;
45650;SDS011;31365;48.858;8.530;2023-06-26T04:22:00;6.00;;;5.50;;
45650;SDS011;31365;48.858;8.530;2023-06-26T04:24:29;5.72;;;5.30;;
45650;SDS011;31365;48.858;8.530;2023-06-26T04:26:58;7.53;;;5.15;;
45650;SDS011;31365;48.858;8.530;2023-06-26T04:29:28;5.85;;;5.32;;
45650;SDS011;31365;48.858;8.530;2023-06-26T04:31:57;5.75;;;5.25;;
45650;SDS011;31365;48.858;8.530;2023-06-26T04:34:25;5.80;;;5.30;;
45650;SDS011;31365;48.858;8.530;2023-06-26T04:37:01;5.90;;;5.30;;
45650;SDS011;31365;48.858;8.530;2023-06-26T04:39:30;5.32;;;4.82;;
45650;SDS011;31365;48.858;8.530;2023-06-26T04:41:59;5.97;;;4.95;;
45650;SDS011;31365;48.858;8.530;2023-06-26T04:44:29;6.90;;;5.18;;
45650;SDS011;31365;48.858;8.530;2023-06-26T04:46:57;7.15;;;5.22;;
45650;SDS011;31365;48.858;8.530;2023-06-26T04:49:26;6.00;;;5.40;;
45650;SDS011;31365;48.858;8.530;2023-06-26T04:51:56;6.03;;;5.40;;
45650;SDS011;31365;48.858;8.530;2023-06-26T04:54:26;5.43;;;4.75;;
45650;SDS011;31365;48.858;8.530;2023-06-26T04:56:55;5.63;;;5.18;;
45650;SDS011;31365;48.858;8.530;2023-06-26T04:59:24;8.32;;;5.18;;
45650;SDS011;31365;48.858;8.530;2023-06-26T05:01:54;5.97;;;5.43;;
45650;SDS011;31365;48.858;8.530;2023-06-26T05:04:22;5.63;;;5.10;;
45650;SDS011;31365;48.858;8.530;2023-06-26T05:06:50;6.25;;;5.65;;
45650;SDS011;31365;48.858;8.530;2023-06-26T05:09:19;7.15;;;5.00;;
45650;SDS011;31365;48.858;8.530;2023-06-26T05:11:48;6.15;;;4.60;;
45650;SDS011;31365;48.858;8.530;2023-06-26T05:14:17;5.97;;;4.65;;
45650;SDS011;31365;48.858;8.530;2023-06-26T05:16:47;7.57;;;5.40;;
45650;SDS011;31365;48.858;8.530;2023-06-26T05:19:18;5.03;;;4.63;;
45650;SDS011;31365;48.858;8.530;2023-06-26T05:21:47;5.97;;;5.35;;
45650;SDS011;31365;48.858;8.530;2023-06-26T05:24:17;5.22;;;4.72;;
45650;SDS011;31365;48.858;8.530;2023-06-26T05:26:50;7.07;;;4.93;;
45650;SDS011;31365;48.858;8.530;2023-06-26T05:29:20;5.30;;;4.85;;
45650;SDS011;31365;48.858;8.530;2023-06-26T05:31:49;5.03;;;4.57;;
45650;SDS011;31365;48.858;8.530;2023-06-26T05:34:20;7.47;;;5.53;;
45650;SDS011;31365;48.858;8.530;2023-06-26T05:36:52;5.07;;;4.68;;
45650;SDS011;31365;48.858;8.530;2023-06-26T05:39:26;5.60;;;5.10;;
45650;SDS011;31365;48.858;8.530;2023-06-26T05:41:56;7.90;;;4.95;;
45650;SDS011;31365;48.858;8.530;2023-06-26T05:44:25;5.43;;;4.93;;
45650;SDS011;31365;48.858;8.530;2023-06-26T05:46:53;5.30;;;4.75;;
45650;SDS011;31365;48.858;8.530;2023-06-26T05:49:23;6.78;;;5.15;;
45650;SDS011;31365;48.858;8.530;2023-06-26T05:51:52;5.70;;;4.53;;
45650;SDS011;31365;48.858;8.530;2023-06-26T05:54:22;5.65;;;4.82;;
45650;SDS011;31365;48.858;8.530;2023-06-26T05:56:52;5.35;;;4.85;;
45650;SDS011;31365;48.858;8.530;2023-06-26T05:59:26;5.15;;;4.68;;
45650;SDS011;31365;48.858;8.530;2023-06-26T06:01:55;5.43;;;4.90;;
45650;SDS011;31365;48.858;8.530;2023-06-26T06:04:25;5.18;;;4.75;;
45650;SDS011;31365;48.858;8.530;2023-06-26T06:06:53;5.50;;;5.03;;
45650;SDS011;31365;48.858;8.530;2023-06-26T06:09:21;5.50;;;5.00;;
45650;SDS011;31365;48.858;8.530;2023-06-26T06:11:51;4.78;;;4.38;;
45650;SDS011;31365;48.858;8.530;2023-06-26T06:14:20;5.45;;;4.72;;
45650;SDS011;31365;48.858;8.530;2023-06-26T06:16:48;4.72;;;4.32;;
45650;SDS011;31365;48.858;8.530;2023-06-26T06:19:17;3.95;;;3.65;;
45650;SDS011;31365;48.858;8.530;2023-06-26T06:21:46;4.30;;;3.90;;
45650;SDS011;31365;48.858;8.530;2023-06-26T06:24:15;4.15;;;3.75;;
45650;SDS011;31365;48.858;8.530;2023-06-26T06:26:43;3.88;;;3.55;;
45650;SDS011;31365;48.858;8.530;2023-06-26T06:29:12;4.38;;;4.00;;
45650;SDS011;31365;48.858;8.530;2023-06-26T06:31:40;5.18;;;4.65;;
45650;SDS011;31365;48.858;8.530;2023-06-26T06:34:08;6.88;;;3.92;;
45650;SDS011;31365;48.858;8.530;2023-06-26T06:36:37;4.93;;;4.40;;
45650;SDS011;31365;48.858;8.530;2023-06-26T06:39:07;3.97;;;3.67;;
45650;SDS011;31365;48.858;8.530;2023-06-26T06:41:35;4.68;;;4.35;;
45650;SDS011;31365;48.858;8.530;2023-06-26T06:44:05;4.50;;;4.10;;
45650;SDS011;31365;48.858;8.530;2023-06-26T06:46:33;4.50;;;4.10;;
45650;SDS011;31365;48.858;8.530;2023-06-26T06:49:01;4.80;;;4.18;;
45650;SDS011;31365;48.858;8.530;2023-06-26T06:51:30;5.25;;;3.95;;
45650;SDS011;31365;48.858;8.530;2023-06-26T06:53:59;5.13;;;3.88;;
45650;SDS011;31365;48.858;8.530;2023-06-26T06:56:29;4.45;;;4.05;;
45650;SDS011;31365;48.858;8.530;2023-06-26T06:58:58;6.25;;;3.95;;
45650;SDS011;31365;48.858;8.530;2023-06-26T07:01:27;5.03;;;4.05;;
45650;SDS011;31365;48.858;8.530;2023-06-26T07:03:56;4.70;;;4.30;;
45650;SDS011;31365;48.858;8.530;2023-06-26T07:06:25;5.18;;;4.32;;
45650;SDS011;31365;48.858;8.530;2023-06-26T07:08:54;4.43;;;4.13;;
45650;SDS011;31365;48.858;8.530;2023-06-26T07:11:22;4.15;;;3.75;;
45650;SDS011;31365;48.858;8.530;2023-06-26T07:13:52;3.83;;;3.53;;
45650;SDS011;31365;48.858;8.530;2023-06-26T07:16:20;3.95;;;3.65;;
45650;SDS011;31365;48.858;8.530;2023-06-26T07:18:49;4.68;;;4.28;;
45650;SDS011;31365;48.858;8.530;2023-06-26T07:21:18;4.75;;;4.35;;
45650;SDS011;31365;48.858;8.530;2023-06-26T07:23:46;4.32;;;4.03;;
45650;SDS011;31365;48.858;8.530;2023-06-26T07:26:15;4.10;;;3.80;;
45650;SDS011;31365;48.858;8.530;2023-06-26T07:28:53;4.80;;;4.40;;
45650;SDS011;31365;48.858;8.530;2023-06-26T07:31:23;4.32;;;4.03;;
45650;SDS011;31365;48.858;8.530;2023-06-26T07:33:52;4.65;;;4.25;;
45650;SDS011;31365;48.858;8.530;2023-06-26T07:36:21;5.60;;;4.25;;
45650;SDS011;31365;48.858;8.530;2023-06-26T07:38:50;4.75;;;4.00;;
45650;SDS011;31365;48.858;8.530;2023-06-26T07:41:18;4.55;;;4.18;;
45650;SDS011;31365;48.858;8.530;2023-06-26T07:43:47;4.75;;;4.35;;
45650;SDS011;31365;48.858;8.530;2023-06-26T07:46:17;4.50;;;4.10;;
45650;SDS011;31365;48.858;8.530;2023-06-26T07:48:46;5.00;;;4.07;;
45650;SDS011;31365;48.858;8.530;2023-06-26T07:51:15;4.75;;;4.35;;
45650;SDS011;31365;48.858;8.530;2023-06-26T07:53:44;4.78;;;4.38;;
45650;SDS011;31365;48.858;8.530;2023-06-26T07:56:13;4.90;;;4.50;;
45650;SDS011;31365;48.858;8.530;2023-06-26T07:58:41;5.40;;;4.90;;
45650;SDS011;31365;48.858;8.530;2023-06-26T08:01:10;5.05;;;4.65;;
45650;SDS011;31365;48.858;8.530;2023-06-26T08:03:40;4.97;;;4.47;;
45650;SDS011;31365;48.858;8.530;2023-06-26T08:06:09;4.53;;;4.13;;
45650;SDS011;31365;48.858;8.530;2023-06-26T08:08:38;5.10;;;4.60;;
45650;SDS011;31365;48.858;8.530;2023-06-26T08:11:06;5.53;;;4.82;;
45650;SDS011;31365;48.858;8.530;2023-06-26T08:13:36;5.10;;;4.57;;
45650;SDS011;31365;48.858;8.530;2023-06-26T08:16:05;5.15;;;4.65;;
45650;SDS011;31365;48.858;8.530;2023-06-26T08:18:34;5.57;;;4.80;;
45650;SDS011;31365;48.858;8.530;2023-06-26T08:21:04;4.97;;;4.57;;
45650;SDS011;31365;48.858;8.530;2023-06-26T08:23:33;5.38;;;4.88;;
45650;SDS011;31365;48.858;8.530;2023-06-26T08:26:01;5.05;;;4.65;;
45650;SDS011;31365;48.858;8.530;2023-06-26T08:28:30;6.30;;;4.90;;
45650;SDS011;31365;48.858;8.530;2023-06-26T08:30:59;5.45;;;5.00;;
45650;SDS011;31365;48.858;8.530;2023-06-26T08:33:27;5.65;;;5.03;;
45650;SDS011;31365;48.858;8.530;2023-06-26T08:35:56;5.13;;;4.72;;
45650;SDS011;31365;48.858;8.530;2023-06-26T08:38:26;5.47;;;4.97;;
45650;SDS011;31365;48.858;8.530;2023-06-26T08:40:54;5.70;;;5.20;;
45650;SDS011;31365;48.858;8.530;2023-06-26T08:43:23;5.43;;;4.93;;
45650;SDS011;31365;48.858;8.530;2023-06-26T08:45:54;6.10;;;5.40;;
45650;SDS011;31365;48.858;8.530;2023-06-26T08:48:23;7.47;;;5.63;;
45650;SDS011;31365;48.858;8.530;2023-06-26T08:50:53;5.53;;;5.03;;
45650;SDS011;31365;48.858;8.530;2023-06-26T08:53:28;5.75;;;5.15;;
45650;SDS011;31365;48.858;8.530;2023-06-26T08:56:07;6.45;;;5.80;;
45650;SDS011;31365;48.858;8.530;2023-06-26T08:58:37;5.88;;;5.18;;
45650;SDS011;31365;48.858;8.530;2023-06-26T09:01:09;6.10;;;5.50;;
45650;SDS011;31365;48.858;8.530;2023-06-26T09:03:40;6.20;;;5.60;;
45650;SDS011;31365;48.858;8.530;2023-06-26T09:06:09;8.75;;;5.18;;
45650;SDS011;31365;48.858;8.530;2023-06-26T09:08:40;6.15;;;5.57;;
45650;SDS011;31365;48.858;8.530;2023-06-26T09:11:09;7.65;;;5.32;;
45650;SDS011;31365;48.858;8.530;2023-06-26T09:13:37;5.90;;;5.00;;
45650;SDS011;31365;48.858;8.530;2023-06-26T09:16:07;6.20;;;4.70;;
45650;SDS011;31365;48.858;8.530;2023-06-26T09:18:37;6.13;;;5.03;;
45650;SDS011;31365;48.858;8.530;2023-06-26T09:21:08;5.80;;;5.30;;
45650;SDS011;31365;48.858;8.530;2023-06-26T09:23:40;6.05;;;5.55;;
45650;SDS011;31365;48.858;8.530;2023-06-26T09:26:09;5.90;;;5.30;;
45650;SDS011;31365;48.858;8.530;2023-06-26T09:28:38;8.18;;;5.50;;
45650;SDS011;31365;48.858;8.530;2023-06-26T09:31:09;5.75;;;5.30;;
45650;SDS011;31365;48.858;8.530;2023-06-26T09:33:57;7.32;;;5.68;;
45650;SDS011;31365;48.858;8.530;2023-06-26T09:36:27;6.03;;;5.43;;
45650;SDS011;31365;48.858;8.530;2023-06-26T09:39:07;7.47;;;5.32;;
45650;SDS011;31365;48.858;8.530;2023-06-26T09:41:40;5.65;;;5.15;;
45650;SDS011;31365;48.858;8.530;2023-06-26T09:44:10;7.82;;;5.22;;
45650;SDS011;31365;48.858;8.530;2023-06-26T09:46:44;7.43;;;5.53;;
45650;SDS011;31365;48.858;8.530;2023-06-26T09:49:13;6.95;;;5.25;;
45650;SDS011;31365;48.858;8.530;2023-06-26T09:51:42;5.65;;;5.15;;
45650;SDS011;31365;48.858;8.530;2023-06-26T09:54:12;5.85;;;5.30;;
45650;SDS011;31365;48.858;8.530;2023-06-26T09:56:44;6.82;;;5.70;;
45650;SDS011;31365;48.858;8.530;2023-06-26T09:59:12;6.95;;;5.15;;
45650;SDS011;31365;48.858;8.530;2023-06-26T10:01:45;5.22;;;4.80;;
45650;SDS011;31365;48.858;8.530;2023-06-26T10:04:15;4.53;;;4.15;;
45650;SDS011;31365;48.858;8.530;2023-06-26T10:06:45;4.97;;;4.40;;
45650;SDS011;31365;48.858;8.530;2023-06-26T10:09:19;5.28;;;4.40;;
45650;SDS011;31365;48.858;8.530;2023-06-26T10:11:53;5.57;;;4.88;;
45650;SDS011;31365;48.858;8.530;2023-06-26T10:14:26;5.10;;;4.70;;
45650;SDS011;31365;48.858;8.530;2023-06-26T10:16:59;5.38;;;4.88;;
45650;SDS011;31365;48.858;8.530;2023-06-26T10:19:31;5.30;;;4.80;;
45650;SDS011;31365;48.858;8.530;2023-06-26T10:22:03;5.32;;;4.57;;
45650;SDS011;31365;48.858;8.530;2023-06-26T10:24:35;5.45;;;4.95;;
45650;SDS011;31365;48.858;8.530;2023-06-26T10:27:08;5.35;;;4.95;;
45650;SDS011;31365;48.858;8.530;2023-06-26T10:29:44;5.55;;;5.05;;
45650;SDS011;31365;48.858;8.530;2023-06-26T10:32:18;6.28;;;4.68;;
45650;SDS011;31365;48.858;8.530;2023-06-26T10:34:51;7.05;;;4.97;;
45650;SDS011;31365;48.858;8.530;2023-06-26T10:37:26;5.90;;;5.35;;
45650;SDS011;31365;48.858;8.530;2023-06-26T10:40:11;13.25;;;5.28;;
45650;SDS011;31365;48.858;8.530;2023-06-26T10:42:41;5.35;;;4.85;;
45650;SDS011;31365;48.858;8.530;2023-06-26T10:45:09;5.88;;;4.90;;
45650;SDS011;31365;48.858;8.530;2023-06-26T10:47:41;5.97;;;4.90;;
45650;SDS011;31365;48.858;8.530;2023-06-26T10:50:18;5.43;;;4.93;;
45650;SDS011;31365;48.858;8.530;2023-06-26T10:55:50;6.22;;;5.00;;
45650;SDS011;31365;48.858;8.530;2023-06-26T10:58:30;5.63;;;5.00;;
45650;SDS011;31365;48.858;8.530;2023-06-26T11:01:20;5.45;;;4.95;;
45650;SDS011;31365;48.858;8.530;2023-06-26T11:04:00;11.60;;;5.13;;
45650;SDS011;31365;48.858;8.530;2023-06-26T11:06:33;5.82;;;4.78;;
45650;SDS011;31365;48.858;8.530;2023-06-26T11:09:09;5.70;;;5.00;;
45650;SDS011;31365;48.858;8.530;2023-06-26T11:11:59;9.73;;;5.25;;
45650;SDS011;31365;48.858;8.530;2023-06-26T11:14:35;5.30;;;4.80;;
45650;SDS011;31365;48.858;8.530;2023-06-26T11:17:04;7.82;;;5.57;;
45650;SDS011;31365;48.858;8.530;2023-06-26T11:19:34;5.13;;;4.63;;
45650;SDS011;31365;48.858;8.530;2023-06-26T11:22:03;5.68;;;5.18;;
45650;SDS011;31365;48.858;8.530;2023-06-26T11:24:33;6.00;;;5.00;;
45650;SDS011;31365;48.858;8.530;2023-06-26T11:27:04;5.32;;;4.82;;
45650;SDS011;31365;48.858;8.530;2023-06-26T11:29:33;5.20;;;4.70;;
45650;SDS011;31365;48.858;8.530;2023-06-26T11:32:03;6.63;;;4.60;;
45650;SDS011;31365;48.858;8.530;2023-06-26T11:34:34;6.07;;;4.30;;
45650;SDS011;31365;48.858;8.530;2023-06-26T11:37:04;4.50;;;4.10;;
45650;SDS011;31365;48.858;8.530;2023-06-26T11:39:34;6.80;;;4.78;;
45650;SDS011;31365;48.858;8.530;2023-06-26T11:42:05;4.65;;;4.25;;
45650;SDS011;31365;48.858;8.530;2023-06-26T11:44:39;5.28;;;3.63;;
45650;SDS011;31365;48.858;8.530;2023-06-26T11:47:13;7.13;;;4.50;;
45650;SDS011;31365;48.858;8.530;2023-06-26T11:49:43;4.72;;;4.05;;
45650;SDS011;31365;48.858;8.530;2023-06-26T11:52:12;5.13;;;4.22;;
45650;SDS011;31365;48.858;8.530;2023-06-26T11:54:42;3.83;;;3.50;;
45650;SDS011;31365;48.858;8.530;2023-06-26T11:57:17;4.40;;;4.00;;
45650;SDS011;31365;48.858;8.530;2023-06-26T11:59:49;4.20;;;3.80;;
45650;SDS011;31365;48.858;8.530;2023-06-26T12:02:20;5.00;;;3.90;;
45650;SDS011;31365;48.858;8.530;2023-06-26T12:04:49;3.70;;;3.40;;
45650;SDS011;31365;48.858;8.530;2023-06-26T12:07:18;4.40;;;4.00;;
45650;SDS011;31365;48.858;8.530;2023-06-26T12:09:49;4.55;;;3.90;;
45650;SDS011;31365;48.858;8.530;2023-06-26T12:12:20;4.07;;;3.78;;
45650;SDS011;31365;48.858;8.530;2023-06-26T12:14:50;4.80;;;4.25;;
45650;SDS011;31365;48.858;8.530;2023-06-26T12:17:21;5.18;;;4.10;;
45650;SDS011;31365;48.858;8.530;2023-06-26T12:19:51;4.35;;;3.65;;
45650;SDS011;31365;48.858;8.530;2023-06-26T12:22:21;8.50;;;3.50;;
45650;SDS011;31365;48.858;8.530;2023-06-26T12:24:49;4.85;;;3.88;;
45650;SDS011;31365;48.858;8.530;2023-06-26T12:27:19;4.25;;;3.13;;
45650;SDS011;31365;48.858;8.530;2023-06-26T12:29:49;3.83;;;3.50;;
45650;SDS011;31365;48.858;8.530;2023-06-26T12:32:21;5.55;;;3.45;;
45650;SDS011;31365;48.858;8.530;2023-06-26T12:34:52;3.90;;;3.35;;
45650;SDS011;31365;48.858;8.530;2023-06-26T12:37:21;5.15;;;3.35;;
45650;SDS011;31365;48.858;8.530;2023-06-26T12:39:50;4.60;;;3.17;;
45650;SDS011;31365;48.858;8.530;2023-06-26T12:42:22;3.78;;;2.70;;
45650;SDS011;31365;48.858;8.530;2023-06-26T12:44:53;3.88;;;3.10;;
45650;SDS011;31365;48.858;8.530;2023-06-26T12:47:23;3.17;;;2.90;;
45650;SDS011;31365;48.858;8.530;2023-06-26T12:49:54;3.95;;;2.70;;
45650;SDS011;31365;48.858;8.530;2023-06-26T12:52:24;5.45;;;3.00;;
45650;SDS011;31365;48.858;8.530;2023-06-26T12:54:53;11.00;;;2.80;;
45650;SDS011;31365;48.858;8.530;2023-06-26T12:57:26;3.72;;;2.70;;
45650;SDS011;31365;48.858;8.530;2023-06-26T12:59:54;2.53;;;2.33;;
45650;SDS011;31365;48.858;8.530;2023-06-26T13:02:23;2.70;;;2.50;;
45650;SDS011;31365;48.858;8.530;2023-06-26T13:04:51;3.15;;;2.83;;
45650;SDS011;31365;48.858;8.530;2023-06-26T13:07:20;2.70;;;2.50;;
45650;SDS011;31365;48.858;8.530;2023-06-26T13:09:52;3.15;;;2.60;;
45650;SDS011;31365;48.858;8.530;2023-06-26T13:12:20;2.88;;;2.67;;
45650;SDS011;31365;48.858;8.530;2023-06-26T13:14:50;3.45;;;2.90;;
45650;SDS011;31365;48.858;8.530;2023-06-26T13:17:18;5.70;;;3.00;;
45650;SDS011;31365;48.858;8.530;2023-06-26T13:19:47;5.28;;;2.90;;
45650;SDS011;31365;48.858;8.530;2023-06-26T13:22:16;5.60;;;2.78;;
45650;SDS011;31365;48.858;8.530;2023-06-26T13:24:45;3.58;;;2.88;;
45650;SDS011;31365;48.858;8.530;2023-06-26T13:27:13;3.53;;;2.70;;
45650;SDS011;31365;48.858;8.530;2023-06-26T13:29:43;3.60;;;2.72;;
45650;SDS011;31365;48.858;8.530;2023-06-26T13:32:12;3.60;;;2.70;;
45650;SDS011;31365;48.858;8.530;2023-06-26T13:34:42;2.88;;;2.55;;
45650;SDS011;31365;48.858;8.530;2023-06-26T13:37:11;3.28;;;2.80;;
45650;SDS011;31365;48.858;8.530;2023-06-26T13:39:39;4.57;;;2.42;;
45650;SDS011;31365;48.858;8.530;2023-06-26T13:42:08;7.03;;;2.95;;
45650;SDS011;31365;48.858;8.530;2023-06-26T13:44:37;2.85;;;2.45;;
45650;SDS011;31365;48.858;8.530;2023-06-26T13:47:23;6.53;;;3.20;;
45650;SDS011;31365;48.858;8.530;2023-06-26T13:49:52;3.40;;;2.90;;
45650;SDS011;31365;48.858;8.530;2023-06-26T13:52:21;5.05;;;3.42;;
45650;SDS011;31365;48.858;8.530;2023-06-26T13:54:49;7.32;;;3.35;;
45650;SDS011;31365;48.858;8.530;2023-06-26T13:57:18;5.18;;;3.30;;
45650;SDS011;31365;48.858;8.530;2023-06-26T13:59:49;4.32;;;3.92;;
45650;SDS011;31365;48.858;8.530;2023-06-26T14:02:19;3.55;;;3.25;;
45650;SDS011;31365;48.858;8.530;2023-06-26T14:04:49;4.25;;;3.85;;
45650;SDS011;31365;48.858;8.530;2023-06-26T14:07:18;3.72;;;3.38;;
45650;SDS011;31365;48.858;8.530;2023-06-26T14:09:46;6.53;;;3.30;;
45650;SDS011;31365;48.858;8.530;2023-06-26T14:12:15;5.93;;;4.38;;
45650;SDS011;31365;48.858;8.530;2023-06-26T14:14:44;5.20;;;4.47;;
45650;SDS011;31365;48.858;8.530;2023-06-26T14:17:13;5.80;;;3.83;;
45650;SDS011;31365;48.858;8.530;2023-06-26T14:19:44;6.00;;;4.60;;
45650;SDS011;31365;48.858;8.530;2023-06-26T14:22:16;5.20;;;4.70;;
45650;SDS011;31365;48.858;8.530;2023-06-26T14:24:45;5.25;;;4.75;;
45650;SDS011;31365;48.858;8.530;2023-06-26T14:27:13;6.47;;;4.70;;
45650;SDS011;31365;48.858;8.530;2023-06-26T14:29:43;6.75;;;4.65;;
45650;SDS011;31365;48.858;8.530;2023-06-26T14:32:11;5.82;;;4.30;;
45650;SDS011;31365;48.858;8.530;2023-06-26T14:34:40;5.03;;;4.63;;
45650;SDS011;31365;48.858;8.530;2023-06-26T14:37:08;6.55;;;5.07;;
45650;SDS011;31365;48.858;8.530;2023-06-26T14:39:39;5.68;;;4.68;;
45650;SDS011;31365;48.858;8.530;2023-06-26T14:42:08;5.40;;;4.28;;
45650;SDS011;31365;48.858;8.530;2023-06-26T14:44:38;5.47;;;4.90;;
45650;SDS011;31365;48.858;8.530;2023-06-26T14:47:06;7.32;;;4.53;;
45650;SDS011;31365;48.858;8.530;2023-06-26T14:49:59;5.40;;;4.30;;
45650;SDS011;31365;48.858;8.530;2023-06-26T14:52:28;5.68;;;4.88;;
45650;SDS011;31365;48.858;8.530;2023-06-26T14:54:59;5.97;;;4.80;;
45650;SDS011;31365;48.858;8.530;2023-06-26T14:57:31;7.80;;;5.18;;
45650;SDS011;31365;48.858;8.530;2023-06-26T15:00:00;5.72;;;5.22;;
45650;SDS011;31365;48.858;8.530;2023-06-26T15:02:30;9.85;;;5.60;;
45650;SDS011;31365;48.858;8.530;2023-06-26T15:04:59;7.05;;;5.35;;
45650;SDS011;31365;48.858;8.530;2023-06-26T15:07:28;5.22;;;4.72;;
45650;SDS011;31365;48.858;8.530;2023-06-26T15:09:58;6.15;;;5.47;;